WetterOnline ( https://www.wetteronline.ch )

Wetter aktuell Leck

Aktuelles Wetter: Leck (17m)

6-stündlich | Neueste Meldungen
Ortszeit Temperatur Wetter
Do, 17.10. 20:00 9.2° C wolkenlos
Do, 17.10. 14:00 14.2° C bedeckt
Do, 17.10. 8:00 13.4° C Sprühregen
Do, 17.10. 2:00 12.0° C Sprühregen
Mi, 16.10. 20:00 10.8° C leicht bewölkt
Mi, 16.10. 14:00 13.7° C bedeckt
Mi, 16.10. 8:00 13.1° C Regen
Mi, 16.10. 2:00 13.2° C Sprühregen
Ortszeit Temperatur Wetter
Do, 17.10. 23:00 8.7° C bewölkt
Do, 17.10. 22:40 9.0° C bewölkt
Do, 17.10. 22:30 8.8° C bedeckt
Do, 17.10. 22:20 8.8° C bedeckt
Do, 17.10. 22:10 8.7° C bedeckt
Do, 17.10. 22:00 8.3° C bedeckt
Do, 17.10. 21:50 8.3° C bedeckt
Do, 17.10. 21:30 8.1° C leicht bewölkt
Do, 17.10. 21:00 7.6° C wolkenlos
Do, 17.10. 20:30 7.9° C wolkenlos
Do, 17.10. 20:00 9.2° C wolkenlos
Do, 17.10. 19:30 10.3° C wolkenlos
Ortszeit Relative Feuchte Sichtweite
Do, 17.10. 20:00 93% 15 km
Do, 17.10. 14:00 82% 27 km
Do, 17.10. 8:00 97% 6 km
Do, 17.10. 2:00 96% 2.8 km
Mi, 16.10. 20:00 92% 12 km
Mi, 16.10. 14:00 92% 24 km
Mi, 16.10. 8:00 98% 2.8 km
Mi, 16.10. 2:00 97% 3.3 km
Ortszeit Relative Feuchte Sichtweite
Do, 17.10. 23:00 97% 10 km
Do, 17.10. 22:40 96% -
Do, 17.10. 22:30 97% 12 km
Do, 17.10. 22:20 97% -
Do, 17.10. 22:10 97% -
Do, 17.10. 22:00 97% 12 km
Do, 17.10. 21:50 97% -
Do, 17.10. 21:30 97% 14 km
Do, 17.10. 21:00 97% 16 km
Do, 17.10. 20:30 97% 3.7 km
Do, 17.10. 20:00 93% 15 km
Do, 17.10. 19:30 92% 25 km
Ortszeit Niederschlagsmenge Niederschlagsart
Do, 17.10. 20:00 2 l/m2 in 12 Std. -
Do, 17.10. 14:00 2 l/m2 in 6 Std. Regen
Do, 17.10. 8:00 7 l/m2 in 12 Std. Regen
Do, 17.10. 2:00 0.1 l/m2 in 6 Std. Regen
Mi, 16.10. 20:00 2 l/m2 in 12 Std. Regen
Mi, 16.10. 14:00 2 l/m2 in 6 Std. Regen
Mi, 16.10. 8:00 13 l/m2 in 12 Std. Regen
Mi, 16.10. 2:00 2 l/m2 in 6 Std. Regen
Ortszeit Niederschlagsmenge Niederschlagsart
Do, 17.10. 23:00 0.0 l/m2 in 1 Std. -
Do, 17.10. 22:40 keine Meldung -
Do, 17.10. 22:30 0.0 l/m2 in 1 Std. -
Do, 17.10. 22:20 keine Meldung -
Do, 17.10. 22:10 keine Meldung -
Do, 17.10. 22:00 0.0 l/m2 in 1 Std. -
Do, 17.10. 21:50 keine Meldung -
Do, 17.10. 21:30 0.0 l/m2 in 1 Std. -
Do, 17.10. 21:00 0.0 l/m2 in 1 Std. -
Do, 17.10. 20:30 0.0 l/m2 in 1 Std. -
Do, 17.10. 20:00 0.0 l/m2 in 1 Std. -
Do, 17.10. 19:30 0.0 l/m2 in 1 Std. -
Ortszeit Stärke Spitze Richtung
km/h Bft. km/h Grad Sektor
Do, 17.10. 20:00 4 1 32 160° S
Do, 17.10. 14:00 14 3 29 220° SW
Do, 17.10. 8:00 18 3 32 200° S
Do, 17.10. 2:00 11 2 22 160° S
Mi, 16.10. 20:00 11 2 32 180° S
Mi, 16.10. 14:00 9 2 20 240° SW
Mi, 16.10. 8:00 7 2 14 240° SW
Mi, 16.10. 2:00 9 2 15 230° SW
Ortszeit Stärke Spitze Richtung
km/h Bft. km/h Grad Sektor
Do, 17.10. 23:00 4 1 11 100° O
Do, 17.10. 22:40 9 2 - 100° O
Do, 17.10. 22:30 7 2 7 100° O
Do, 17.10. 22:20 7 2 - 100° O
Do, 17.10. 22:10 7 2 - 90° O
Do, 17.10. 22:00 7 2 7 110° O
Do, 17.10. 21:50 7 2 - 110° O
Do, 17.10. 21:30 6 1 9 130° SO
Do, 17.10. 21:00 6 1 9 130° SO
Do, 17.10. 20:30 4 1 7 170° S
Do, 17.10. 20:00 4 1 11 160° S
Do, 17.10. 19:30 7 2 11 170° S
Ortszeit Untergrenze Bedeckung Gattung
total tief tief mittel hoch
Do, 17.10. 20:00 - 0/8 0/8 - - -
Do, 17.10. 14:00 1200 m 8/8 8/8 - - -
Do, 17.10. 8:00 90 m 8/8 8/8 - - -
Do, 17.10. 2:00 150 m 8/8 8/8 - - -
Mi, 16.10. 20:00 540 m 3/8 3/8 - - -
Mi, 16.10. 14:00 240 m 8/8 8/8 - - -
Mi, 16.10. 8:00 60 m 7/8 7/8 - - -
Mi, 16.10. 2:00 240 m 8/8 8/8 - - -
Ortszeit Bedeckungsgrad in Achtel und Wolkenuntergrenze
Do, 17.10. 23:00 7(2400m)
Do, 17.10. 22:40 7(2400m)
Do, 17.10. 22:30 8(2100m)
Do, 17.10. 22:20 8(2100m)
Do, 17.10. 22:10 8(2400m)
Do, 17.10. 22:00 8(2400m)
Do, 17.10. 21:50 8(2400m)
Do, 17.10. 21:30 3(2100m)
Do, 17.10. 21:00 keine Wolken
Do, 17.10. 20:30 keine Wolken
Do, 17.10. 20:00 keine Wolken
Do, 17.10. 19:30 keine Wolken
Ortszeit Luftdruck NN (hPa) Tendenz (hPa in 3 Std.)
Do, 17.10. 20:00 1010 + 0,2
Do, 17.10. 14:00 1008 + 1,1
Do, 17.10. 8:00 1005 0,0
Do, 17.10. 2:00 1006 - 1,0
Mi, 16.10. 20:00 1008 + 0,6
Mi, 16.10. 14:00 1007 + 0,6
Mi, 16.10. 8:00 1006 + 0,2
Mi, 16.10. 2:00 1007 + 0,7
Ortszeit Luftdruck NN (hPa) Tendenz (hPa in 3 Std.)
Do, 17.10. 23:00 1010 - 0,1
Do, 17.10. 22:40 1010 keine Meldung
Do, 17.10. 22:30 1010 + 0,1
Do, 17.10. 22:20 1010 keine Meldung
Do, 17.10. 22:10 1010 keine Meldung
Do, 17.10. 22:00 1010 + 0,2
Do, 17.10. 21:50 1010 keine Meldung
Do, 17.10. 21:30 1010 + 0,3
Do, 17.10. 21:00 1010 + 0,2
Do, 17.10. 20:30 1010 + 0,4
Do, 17.10. 20:00 1010 + 0,2
Do, 17.10. 19:30 1010 + 0,4
Ortszeit Schneehöhe (cm)
Do, 17.10. 20:00 0
Do, 17.10. 14:00 0
Do, 17.10. 8:00 0
Do, 17.10. 2:00 0
Mi, 16.10. 20:00 0
Mi, 16.10. 14:00 0
Mi, 16.10. 8:00 0
Mi, 16.10. 2:00 0
Ortszeit Schneehöhe (cm)
Do, 17.10. 23:00 0
Do, 17.10. 22:40 0
Do, 17.10. 22:30 0
Do, 17.10. 22:20 0
Do, 17.10. 22:10 0
Do, 17.10. 22:00 0
Do, 17.10. 21:50 0
Do, 17.10. 21:30 0
Do, 17.10. 21:00 0
Do, 17.10. 20:30 0
Do, 17.10. 20:00 0
Do, 17.10. 19:30 0
Link zu dieser Seite / Seite empfehlen

Das Wetter in ...